Flight Track Log - Related Links

Times and Time Zones

All times are in EST time to prevent confusion due to time zone crossing. See the RPA3411 flight status page for this flight to view local times or setup timezone preferences in your user account.

Time Position Orientation Groundspeed Altitude Reporting Facility
EST Latitude Longitude Course Direction KTS MPH feet Rate Location/Type
Fri 06:33:00 PM 43.6483 -70.3544 226° Southwest 139 160 1,800  Level Boston Center
Fri 06:34:02 PM 43.6525 -70.4158 275° West 160 184 3,800 2,634 Climbing Boston Center
Fri 06:35:03 PM 43.6197 -70.4867 237° Southwest 237 273 7,200 3,171 Climbing Boston Center
Fri 06:36:05 PM 43.5567 -70.5433 213° Southwest 269 310 10,300 2,829 Climbing Boston Center
Fri 06:37:00 PM 43.4155 -70.3517 226° Southwest  Level FlightAware Approximate
Fri 06:37:06 PM 43.4819 -70.5897 204° Southwest 302 348 13,000  Level Boston Center
Fri 06:38:00 PM 43.3595 -70.4300 226° Southwest  Level FlightAware Approximate
Fri 06:38:07 PM 43.3975 -70.6228 196° South 314 361 15,700  Level Boston Center
Fri 06:39:09 PM 43.3100 -70.6600 197° South 325 374 19,100 2,488 Climbing Boston Center
Fri 06:40:10 PM 43.2283 -70.6919 196° South 332 382 20,800 2,164 Climbing Boston Center
Fri 06:41:11 PM 43.1192 -70.7436 199° South 345 397 23,500 2,390 Climbing Boston Center
Fri 06:42:13 PM 43.0336 -70.8089 209° Southwest 351 404 25,700 1,756 Climbing Boston Center
Fri 06:43:14 PM 42.9464 -70.8719 208° Southwest 354 407 27,100 1,131 Climbing Boston Center
Fri 06:44:15 PM 42.8500 -70.9428 208° Southwest 397 457 28,000 439 Climbing Boston Center
Fri 06:45:17 PM 42.7572 -70.9906 201° Southwest 374 430 28,000  Level Boston Center
Fri 06:46:18 PM 42.6622 -71.0203 193° South 360 414 28,000 -244 Level Boston Center
Fri 06:47:20 PM 42.5600 -71.0269 183° South 367 422 27,500 -732 Descending Boston Center
Fri 06:48:21 PM 42.4594 -71.0314 182° South 365 420 26,500 -1,082 Descending Boston Center
Fri 06:49:22 PM 42.3342 -71.0392 183° South 374 430 25,300 -976 Descending Boston Center
Fri 06:50:24 PM 42.2569 -71.1106 214° Southwest 341 392 24,500 -634 Descending Boston Center
Fri 06:51:25 PM 42.1864 -71.1906 220° Southwest 332 382 24,000 -246 Descending Boston Center
Fri 06:52:26 PM 42.1189 -71.2633 219° Southwest 330 380 24,000  Level Boston Center
Fri 06:53:28 PM 42.0481 -71.3389 218° Southwest 325 374 24,000  Level Boston Center
Fri 06:54:29 PM 41.9942 -71.3969 219° Southwest 316 364 24,000  Level Boston Center
Fri 06:55:31 PM 41.9136 -71.4844 219° Southwest 311 358 24,000  Level Boston Center
Fri 06:56:32 PM 41.8306 -71.5714 218° Southwest 314 361 24,000  Level Boston Center
Fri 06:57:33 PM 41.7606 -71.6453 218° Southwest 318 366 24,000  Level Boston Center
Fri 06:58:35 PM 41.6908 -71.7186 218° Southwest 319 367 24,000  Level Boston Center
Fri 06:59:36 PM 41.6206 -71.7933 218° Southwest 320 368 24,000  Level Boston Center
Fri 07:00:37 PM 41.5492 -71.8675 218° Southwest 321 369 24,000  Level Boston Center
Fri 07:01:39 PM 41.4839 -71.9364 218° Southwest 318 366 24,000  Level Boston Center
Fri 07:02:40 PM 41.4158 -72.0067 218° Southwest 312 359 24,000  Level Boston Center
Fri 07:03:41 PM 41.3336 -72.0933 218° Southwest 312 359 24,000  Level Boston Center
Fri 07:04:43 PM 41.2644 -72.1647 218° Southwest 314 361 24,000  Level Boston Center
Fri 07:05:44 PM 41.1953 -72.2358 218° Southwest 316 364 24,000  Level Boston Center
Fri 07:06:45 PM 41.1239 -72.3108 218° Southwest 315 362 24,000  Level Boston Center
Fri 07:07:47 PM 41.0539 -72.3825 218° Southwest 316 364 24,000  Level Boston Center
Fri 07:08:48 PM 40.9847 -72.4528 217° Southwest 314 361 24,000  Level Boston Center
Fri 07:09:50 PM 40.9158 -72.5242 218° Southwest 315 362 24,000  Level Boston Center
Fri 07:10:51 PM 40.8450 -72.5989 219° Southwest 322 371 24,000  Level Boston Center
Fri 07:11:52 PM 40.7842 -72.6567 216° Southwest 330 380 24,000  Level Boston Center
Fri 07:12:54 PM 40.6869 -72.7589 219° Southwest 347 399 24,000  Level Boston Center
Fri 07:13:55 PM 40.6100 -72.8369 218° Southwest 349 402 24,000 -146 Level Boston Center
Fri 07:14:57 PM 40.5322 -72.9147 217° Southwest 350 403 23,700 -1,024 Descending Boston Center
Fri 07:15:58 PM 40.4575 -72.9897 217° Southwest 342 394 21,900 -1,770 Descending Boston Center
Fri 07:16:59 PM 40.3847 -73.0636 218° Southwest 332 382 20,100 -983 Descending Boston Center
Fri 07:17:54 PM 40.3153 -73.1336 218° Southwest 340 391 20,000 -52 Descending New York Center
Fri 07:18:55 PM 40.2408 -73.2047 216° Southwest 340 391 20,000  Level New York Center
Fri 07:19:54 PM 40.1706 -73.2781 219° Southwest 335 386 20,000  Level New York Center
Fri 07:20:55 PM 40.1003 -73.3489 218° Southwest 330 380 20,000  Level New York Center
Fri 07:21:54 PM 40.0278 -73.4219 218° Southwest 330 380 20,000 -353 Level New York Center
Fri 07:22:54 PM 39.9489 -73.4975 216° Southwest 330 380 19,300 -700 Descending New York Center
Fri 07:23:54 PM 39.8825 -73.5733 221° Southwest 330 380 18,600 -800 Descending New York Center
Fri 07:24:54 PM 39.8261 -73.6603 230° Southwest 325 374 17,700 -850 Descending New York Center
Fri 07:25:54 PM 39.7739 -73.7472 232° Southwest 319 367 16,900 -943 Descending New York Center
Fri 07:27:14 PM 39.7111 -73.8464 231° Southwest 301 346 15,500 -1,064 Descending Washington Center
Fri 07:28:15 PM 39.6583 -73.9311 231° Southwest 301 346 14,400 -793 Descending Washington Center
Fri 07:29:15 PM 39.6072 -74.0106 230° Southwest 307 353 13,900 -254 Descending Washington Center
Fri 07:30:13 PM 39.5542 -74.0950 231° Southwest 307 353 13,900  Level Washington Center
Fri 07:31:15 PM 39.5219 -74.1872 246° West 302 348 13,900 -393 Level Washington Center
Fri 07:32:15 PM 39.5253 -74.2975 272° West 283 326 13,100 -908 Descending Washington Center
Fri 07:33:14 PM 39.5283 -74.4022 272° West 295 339 12,100 -935 Descending Washington Center
Fri 07:35:34 PM 39.5333 -74.6333 272° West 237 273 10,000 -878 Descending Philadelphia TRACON
Fri 07:36:39 PM 39.5333 -74.7333 270° West 237 273 9,100 -480 Descending Philadelphia TRACON
Fri 07:37:39 PM 39.5333 -74.8167 270° West 235 270 9,000 -700 Descending Philadelphia TRACON
Fri 07:38:39 PM 39.5500 -74.9000 285° West 231 266 7,700 -1,488 Descending Philadelphia TRACON
Fri 07:39:40 PM 39.6167 -74.9000 360° North 266 306 6,000 -843 Descending Philadelphia TRACON
Fri 07:40:40 PM 39.6833 -74.9167 349° North 266 306 6,000  Level Philadelphia TRACON
Fri 07:41:40 PM 39.7500 -74.9167 360° North 245 282 6,000 -400 Level Philadelphia TRACON
Fri 07:42:40 PM 39.8167 -74.9167 360° North 180 207 5,200 -1,050 Descending Philadelphia TRACON
Fri 07:43:40 PM 39.8667 -74.9167 360° North 187 215 3,900 -1,100 Descending Philadelphia TRACON
Fri 07:44:40 PM 39.9000 -74.9500 323° Northwest 169 194 3,000 -450 Descending Philadelphia TRACON
Fri 07:45:40 PM 39.9167 -75.0000 294° West 163 188 3,000 -151 Level Philadelphia TRACON
Fri 07:46:39 PM 39.9000 -75.0500 247° West 158 182 2,700 -600 Descending Philadelphia TRACON
Fri 07:47:40 PM 39.9000 -75.1167 270° West 163 188 1,800 -843 Descending Philadelphia TRACON
Fri 07:48:40 PM 39.8833 -75.1667 247° West 116 133 1,000 -700 Descending Philadelphia TRACON
Fri 07:49:40 PM 39.8833 -75.2000 270° West 120 138 400 -600 Descending Philadelphia TRACON

Login

Don't have an account? Register now (free) for customized features, flight alerts, and more!